createdAt,value
2019-03-26T13:05:30.656Z,461.25
2019-03-26T13:06:30.679Z,461.25
2019-03-26T13:07:30.654Z,596.25
2019-03-26T13:08:30.602Z,500.62
2019-03-26T13:09:30.753Z,455.62
2019-03-26T13:11:01.227Z,511.88
2019-03-26T13:12:44.856Z,894.38
2019-03-26T13:13:44.817Z,630.00
2019-03-26T13:14:45.590Z,534.38
2019-03-26T13:15:44.799Z,686.25
2019-03-26T13:17:56.020Z,506.25
2019-03-26T13:18:55.995Z,348.75
2019-03-26T13:19:56.067Z,388.12
2019-03-26T13:20:55.982Z,450.00
2019-03-26T13:21:55.999Z,483.75
2019-03-26T13:22:55.964Z,455.62
2019-03-26T13:23:55.977Z,478.12
2019-03-26T13:24:55.952Z,500.62
2019-03-26T13:27:13.807Z,1063.12
2019-03-26T13:27:55.914Z,703.12
2019-03-26T13:28:55.908Z,838.12
2019-03-26T13:29:55.917Z,624.38
2019-03-26T13:31:25.042Z,680.62
2019-03-26T13:33:35.897Z,1687.50
2019-03-26T13:34:35.887Z,2227.50
2019-03-26T13:36:05.027Z,1181.25
2019-03-26T13:36:45.223Z,2503.12
2019-03-26T13:37:36.962Z,1361.25
2019-03-26T13:38:35.827Z,1130.62
2019-03-26T13:39:35.834Z,2053.12
2019-03-26T13:40:35.820Z,2767.50
2019-03-26T13:41:42.924Z,1715.62
2019-03-26T13:42:42.962Z,1091.25
2019-03-26T13:43:37.951Z,736.88
2019-03-26T13:44:38.438Z,1046.25
2019-03-26T13:45:35.762Z,2491.88
2019-03-26T13:46:35.826Z,1085.62
2019-03-26T13:48:44.965Z,2525.62
2019-03-26T13:49:38.450Z,776.25
2019-03-26T13:50:35.817Z,545.62
2019-03-26T13:51:43.957Z,883.12
2019-03-26T13:52:37.765Z,945.00
2019-03-26T13:54:37.392Z,270.00
2019-03-26T13:58:36.891Z,90.00
2019-03-26T13:59:35.825Z,84.38
2019-03-26T14:00:35.713Z,50.62
2019-03-26T14:01:51.998Z,39.38
2019-03-26T14:02:52.120Z,39.38
2019-03-26T14:03:35.676Z,39.38
2019-03-26T14:04:36.382Z,39.38
2019-03-26T14:12:41.837Z,106.88
2019-03-26T14:14:16.252Z,129.38
2019-03-26T14:15:17.387Z,123.75
2019-03-26T14:16:17.082Z,135.00
2019-03-26T14:18:16.422Z,106.88
2019-03-26T14:19:36.025Z,123.75
2019-03-26T14:20:15.006Z,140.62
2019-03-26T14:21:15.000Z,180.00
2019-03-26T14:22:14.979Z,236.25
2019-03-26T14:24:16.863Z,309.38
2019-03-26T14:25:15.098Z,292.50
2019-03-26T14:27:18.135Z,331.88
2019-03-26T14:28:15.020Z,348.75
2019-03-26T14:29:14.896Z,371.25
2019-03-26T14:30:15.108Z,388.12
2019-03-26T14:31:16.633Z,388.12
2019-03-26T14:32:14.991Z,416.25
2019-03-26T14:33:14.922Z,466.88
2019-03-26T14:34:14.807Z,579.38
2019-03-26T14:35:14.803Z,573.75
2019-03-26T14:36:18.997Z,630.00
2019-03-26T14:38:16.173Z,945.00
2019-03-26T14:39:14.854Z,607.50
2019-03-26T14:40:38.846Z,630.00
2019-03-26T14:41:14.922Z,534.38
2019-03-26T14:42:14.841Z,545.62
2019-03-26T14:43:57.143Z,590.62
2019-03-26T14:47:53.197Z,551.25
2019-03-26T14:56:42.836Z,489.38
2019-03-26T14:57:18.564Z,405.00
2019-03-26T14:58:18.605Z,309.38
